createdAt,value
2022-12-22T00:02:33.142Z,15.77
2022-12-22T00:06:55.357Z,18.25
2022-12-22T00:11:16.185Z,14.50
2022-12-22T00:15:37.537Z,15.25
2022-12-22T00:19:58.281Z,12.38
2022-12-22T00:24:20.417Z,14.73
2022-12-22T00:28:41.371Z,14.38
2022-12-22T00:33:02.529Z,14.93
2022-12-22T00:37:23.826Z,16.20
2022-12-22T00:41:45.848Z,14.57
2022-12-22T00:46:07.010Z,16.08
2022-12-22T00:50:28.749Z,15.82
2022-12-22T00:54:49.524Z,15.88
2022-12-22T00:59:15.700Z,13.82
2022-12-22T01:03:36.472Z,14.20
2022-12-22T01:07:56.937Z,16.23
2022-12-22T01:12:17.764Z,18.02
2022-12-22T01:16:39.778Z,14.82
2022-12-22T01:21:00.753Z,16.23
2022-12-22T01:25:21.297Z,18.33
2022-12-22T01:29:41.789Z,15.07
2022-12-22T01:34:04.463Z,15.63
2022-12-22T01:38:25.121Z,16.95
2022-12-22T01:42:46.312Z,16.90
2022-12-22T01:47:07.076Z,17.33
2022-12-22T01:51:33.772Z,19.15
2022-12-22T01:55:54.685Z,18.38
2022-12-22T02:00:15.198Z,14.85
2022-12-22T02:04:37.934Z,17.95
2022-12-22T02:13:38.461Z,13.10
2022-12-22T02:18:09.965Z,14.48
2022-12-22T02:22:39.461Z,13.30
2022-12-22T02:27:05.016Z,16.25
2022-12-22T02:31:26.171Z,15.02
2022-12-22T02:35:55.456Z,14.02
2022-12-22T02:40:21.216Z,15.00
2022-12-22T02:44:59.269Z,16.73
2022-12-22T02:49:24.742Z,17.98
2022-12-22T02:53:47.920Z,16.45
2022-12-22T02:58:09.724Z,17.30
2022-12-22T03:02:32.630Z,17.40
2022-12-22T03:06:53.693Z,17.85
2022-12-22T03:11:14.783Z,18.08
2022-12-22T03:15:35.348Z,16.30
2022-12-22T03:19:58.306Z,16.67
2022-12-22T03:24:19.306Z,14.63
2022-12-22T03:28:23.895Z,15.77
2022-12-22T03:32:27.322Z,11.93
2022-12-22T03:36:32.282Z,12.57
2022-12-22T03:40:35.725Z,13.07
2022-12-22T03:44:56.379Z,15.43
2022-12-22T03:49:11.884Z,14.85
2022-12-22T03:53:16.666Z,14.80
2022-12-22T03:57:19.645Z,14.40
2022-12-22T04:01:23.238Z,14.23
2022-12-22T04:05:26.620Z,15.80
2022-12-22T04:09:31.358Z,15.65
2022-12-22T04:13:35.229Z,10.07
2022-12-22T04:17:38.529Z,15.35
2022-12-22T04:21:41.867Z,15.73
2022-12-22T04:25:46.340Z,14.40
2022-12-22T04:29:49.728Z,15.40
2022-12-22T04:33:53.300Z,16.48
2022-12-22T04:37:56.910Z,15.82
2022-12-22T04:42:01.374Z,16.10
2022-12-22T04:46:04.814Z,14.00
2022-12-22T04:50:09.290Z,14.00
2022-12-22T04:54:12.742Z,16.80
2022-12-22T04:58:17.942Z,17.00
2022-12-22T05:02:21.245Z,20.00
2022-12-22T05:06:25.021Z,17.08
2022-12-22T05:10:28.371Z,17.75
2022-12-22T05:14:33.570Z,17.75
2022-12-22T05:18:37.533Z,16.45
2022-12-22T05:22:41.169Z,16.98
2022-12-22T05:26:44.758Z,14.93
2022-12-22T05:30:49.905Z,16.48
2022-12-22T05:34:53.202Z,16.92
2022-12-22T05:38:56.877Z,13.63
2022-12-22T05:43:00.188Z,15.75
2022-12-22T05:47:05.341Z,12.23
2022-12-22T05:51:10.424Z,12.00
2022-12-22T05:55:14.378Z,15.35
2022-12-22T05:59:18.073Z,15.32
2022-12-22T06:03:24.112Z,15.38
2022-12-22T06:07:27.510Z,14.52
2022-12-22T06:11:31.075Z,12.75
2022-12-22T06:15:34.368Z,11.40
2022-12-22T06:19:39.560Z,13.80
2022-12-22T06:23:42.974Z,14.10
2022-12-22T06:27:46.542Z,16.05
2022-12-22T06:31:50.010Z,15.63
2022-12-22T06:35:58.907Z,16.02
2022-12-22T06:40:03.187Z,14.73
2022-12-22T06:44:07.144Z,16.20
2022-12-22T06:48:12.648Z,16.45
2022-12-22T06:52:17.497Z,14.45
2022-12-22T06:56:21.191Z,13.57
2022-12-22T07:00:25.153Z,16.45
2022-12-22T07:04:30.475Z,15.25
2022-12-22T07:08:35.392Z,14.93
2022-12-22T07:12:39.222Z,17.10
2022-12-22T07:16:42.864Z,13.85
2022-12-22T07:20:46.396Z,16.42
2022-12-22T07:24:51.805Z,16.13
2022-12-22T07:28:55.459Z,15.52
2022-12-22T07:32:58.976Z,15.32
2022-12-22T07:37:02.731Z,14.40
2022-12-22T07:41:29.653Z,15.38
2022-12-22T07:45:34.540Z,14.00
2022-12-22T07:49:55.429Z,14.20
2022-12-22T07:53:58.735Z,10.45
2022-12-22T07:58:03.728Z,12.38
2022-12-22T08:02:07.277Z,11.27
2022-12-22T08:06:10.764Z,12.05
2022-12-22T08:10:14.440Z,14.23
2022-12-22T08:14:19.163Z,13.52
2022-12-22T08:18:22.829Z,13.25
2022-12-22T08:22:26.719Z,12.90
2022-12-22T08:26:36.663Z,13.35
2022-12-22T08:30:41.557Z,12.88
2022-12-22T08:34:45.309Z,12.50
2022-12-22T08:38:49.114Z,10.77
2022-12-22T08:42:56.990Z,11.32
2022-12-22T08:47:02.123Z,11.10
2022-12-22T08:51:05.903Z,10.88
2022-12-22T08:55:11.012Z,12.20
2022-12-22T08:59:14.553Z,14.60
2022-12-22T09:03:19.804Z,13.13
2022-12-22T09:07:23.404Z,10.18
2022-12-22T09:11:27.332Z,13.07
2022-12-22T09:15:30.878Z,15.50
2022-12-22T09:19:35.879Z,12.20
2022-12-22T09:23:39.421Z,15.45
2022-12-22T09:27:43.025Z,12.10
2022-12-22T09:31:46.265Z,11.85
2022-12-22T09:35:51.452Z,15.00
2022-12-22T09:39:54.969Z,14.48
2022-12-22T09:43:59.123Z,16.10
2022-12-22T09:48:04.087Z,13.05
2022-12-22T09:52:22.749Z,14.45
2022-12-22T09:56:27.988Z,15.07
2022-12-22T10:00:31.669Z,15.82
2022-12-22T10:04:47.772Z,15.45
2022-12-22T10:08:56.030Z,19.77
2022-12-22T10:13:01.750Z,18.95
2022-12-22T10:17:25.373Z,19.67
2022-12-22T10:21:29.519Z,19.70
2022-12-22T10:26:17.017Z,19.95
2022-12-22T10:30:21.671Z,16.45
2022-12-22T10:34:25.762Z,16.95
2022-12-22T10:38:34.332Z,22.77
2022-12-22T10:42:39.311Z,17.25
2022-12-22T10:46:46.259Z,17.90
2022-12-22T10:50:51.303Z,19.05
2022-12-22T10:54:55.051Z,19.00
2022-12-22T10:59:20.333Z,20.63
2022-12-22T11:03:31.175Z,18.10
2022-12-22T11:07:36.217Z,18.08
2022-12-22T11:11:44.567Z,18.95
2022-12-22T11:15:55.910Z,17.48
2022-12-22T11:20:29.606Z,17.38
2022-12-22T11:24:42.059Z,17.65
2022-12-22T11:28:59.101Z,18.65
2022-12-22T11:33:18.413Z,16.98
2022-12-22T11:37:34.136Z,16.27
2022-12-22T11:41:51.254Z,16.17
2022-12-22T11:46:11.828Z,16.58
2022-12-22T11:50:58.466Z,15.85
2022-12-22T11:55:16.833Z,16.45
2022-12-22T11:59:40.710Z,15.02
2022-12-22T12:04:25.474Z,19.73
2022-12-22T12:08:41.271Z,16.25
2022-12-22T12:12:53.940Z,16.35
2022-12-22T12:21:21.866Z,17.33
2022-12-22T12:25:31.814Z,17.00
2022-12-22T12:29:42.136Z,20.02
2022-12-22T12:33:49.716Z,18.55
2022-12-22T12:37:59.228Z,16.80
2022-12-22T12:42:15.101Z,16.02
2022-12-22T12:46:56.104Z,13.50
2022-12-22T12:51:00.175Z,17.20
2022-12-22T12:55:31.688Z,17.17
2022-12-22T12:59:51.648Z,17.42
2022-12-22T13:04:04.587Z,16.83
2022-12-22T13:08:27.386Z,17.73
2022-12-22T13:12:41.291Z,13.68
2022-12-22T13:16:46.438Z,15.98
2022-12-22T13:21:18.677Z,17.50
2022-12-22T13:25:22.543Z,17.30
2022-12-22T13:29:31.175Z,15.10
2022-12-22T13:33:40.811Z,15.45
2022-12-22T13:37:48.185Z,16.92
2022-12-22T13:41:52.795Z,15.43
2022-12-22T13:45:58.269Z,15.30
2022-12-22T13:50:10.650Z,14.82
2022-12-22T13:54:18.730Z,16.38
2022-12-22T13:58:29.556Z,14.80
2022-12-22T14:02:34.907Z,14.05
2022-12-22T14:06:43.089Z,14.75
2022-12-22T14:10:47.212Z,14.20
2022-12-22T14:14:53.362Z,12.90
2022-12-22T14:18:57.103Z,14.43
2022-12-22T14:23:07.743Z,13.48
2022-12-22T14:27:20.405Z,11.07
2022-12-22T14:31:27.179Z,9.52
2022-12-22T14:35:31.884Z,15.82
2022-12-22T14:39:36.818Z,14.38
2022-12-22T14:43:40.708Z,14.85
2022-12-22T14:47:44.275Z,14.23
2022-12-22T14:52:01.124Z,12.38
2022-12-22T14:56:12.524Z,8.02
2022-12-22T15:00:32.471Z,5.70
2022-12-22T15:04:35.990Z,4.03
2022-12-22T15:08:40.647Z,3.08
2022-12-22T15:12:46.261Z,2.30
2022-12-22T15:16:51.318Z,1.67
2022-12-22T15:20:55.641Z,5.85
2022-12-22T15:24:59.263Z,7.72
2022-12-22T15:29:04.275Z,10.63
2022-12-22T15:33:14.370Z,3.35
2022-12-22T15:37:18.071Z,9.68
2022-12-22T15:41:21.963Z,3.78
2022-12-22T15:45:27.457Z,3.90
2022-12-22T15:49:33.050Z,7.85
2022-12-22T15:53:38.696Z,10.13
2022-12-22T15:57:42.350Z,8.85
2022-12-22T16:01:56.615Z,8.55
2022-12-22T16:06:03.927Z,8.23
2022-12-22T16:10:10.483Z,14.27
2022-12-22T16:14:15.364Z,14.77
2022-12-22T16:18:20.444Z,14.10
2022-12-22T16:22:32.564Z,13.68
2022-12-22T16:26:36.140Z,11.10
2022-12-22T16:30:41.578Z,16.58
2022-12-22T16:34:46.818Z,14.15
2022-12-22T16:38:52.183Z,13.85
2022-12-22T16:47:26.641Z,13.40
2022-12-22T16:51:34.842Z,11.00
2022-12-22T16:55:38.552Z,11.27
2022-12-22T16:59:42.309Z,9.73
2022-12-22T17:03:46.186Z,12.40
2022-12-22T17:07:51.831Z,7.22
2022-12-22T17:11:56.830Z,4.47
2022-12-22T17:16:01.878Z,3.85
2022-12-22T17:20:06.563Z,1.70
2022-12-22T17:24:16.987Z,0.98
2022-12-22T17:28:20.751Z,0.93
2022-12-22T17:32:24.386Z,0.30
2022-12-22T17:36:33.839Z,1.02
2022-12-22T17:40:38.975Z,0.90
2022-12-22T17:48:52.194Z,0.57
2022-12-22T17:52:55.997Z,1.02
2022-12-22T17:57:03.419Z,0.82
2022-12-22T18:01:07.147Z,0.55
2022-12-22T18:05:15.567Z,1.40
2022-12-22T18:09:22.833Z,3.78
2022-12-22T18:13:28.139Z,3.80
2022-12-22T18:17:35.995Z,4.43
2022-12-22T18:21:40.089Z,3.63
2022-12-22T18:25:44.040Z,5.72
2022-12-22T18:29:49.290Z,4.95
2022-12-22T18:33:53.172Z,5.30
2022-12-22T18:37:56.916Z,7.63
2022-12-22T18:42:01.050Z,7.40
2022-12-22T18:46:08.117Z,6.97
2022-12-22T18:50:18.179Z,6.78
2022-12-22T18:54:26.057Z,6.20
2022-12-22T18:58:30.076Z,7.78
2022-12-22T19:02:35.060Z,6.43
2022-12-22T19:06:42.432Z,7.45
2022-12-22T19:10:48.821Z,5.55
2022-12-22T19:14:56.990Z,8.45
2022-12-22T19:19:02.975Z,6.60
2022-12-22T19:23:17.529Z,5.72
2022-12-22T19:27:24.663Z,5.72
2022-12-22T19:31:32.078Z,5.53
2022-12-22T19:35:38.747Z,5.45
2022-12-22T19:39:43.060Z,4.55
2022-12-22T19:43:47.876Z,4.22
2022-12-22T19:48:00.533Z,5.68
2022-12-22T19:52:06.864Z,5.72
2022-12-22T19:56:23.157Z,6.40
2022-12-22T20:00:28.972Z,5.93
2022-12-22T20:04:32.657Z,6.00
2022-12-22T20:08:44.753Z,4.40
2022-12-22T20:12:50.482Z,4.25
2022-12-22T20:16:54.591Z,2.85
2022-12-22T20:21:04.339Z,3.15
2022-12-22T20:25:15.292Z,1.55
2022-12-22T20:29:19.633Z,1.08
2022-12-22T20:33:25.414Z,1.15
2022-12-22T20:37:32.730Z,2.22
2022-12-22T20:41:38.792Z,2.08
2022-12-22T20:45:43.695Z,1.17
2022-12-22T20:49:49.655Z,1.15
2022-12-22T20:53:54.105Z,1.10
2022-12-22T20:58:01.790Z,1.00
2022-12-22T21:02:05.914Z,1.15
2022-12-22T21:06:23.953Z,1.58
2022-12-22T21:10:29.002Z,1.15
2022-12-22T21:14:34.190Z,1.38
2022-12-22T21:18:37.886Z,1.40
2022-12-22T21:22:41.473Z,1.15
2022-12-22T21:26:47.761Z,1.20
2022-12-22T21:30:52.992Z,2.00
2022-12-22T21:34:58.242Z,1.52
2022-12-22T21:39:07.703Z,1.40
2022-12-22T21:43:12.798Z,1.88
2022-12-22T21:47:21.291Z,1.80
2022-12-22T21:51:24.669Z,3.88
2022-12-22T21:55:30.993Z,3.30
2022-12-22T21:59:34.356Z,5.10
2022-12-22T22:03:39.357Z,4.90
2022-12-22T22:07:42.728Z,5.25
2022-12-22T22:12:03.903Z,4.47
2022-12-22T22:16:09.646Z,5.88
2022-12-22T22:20:17.828Z,5.60
2022-12-22T22:24:21.818Z,5.43
2022-12-22T22:28:25.077Z,4.50
2022-12-22T22:32:28.658Z,4.85
2022-12-22T22:36:33.388Z,5.85
2022-12-22T22:40:36.923Z,8.10
2022-12-22T22:44:40.771Z,8.35
2022-12-22T22:48:44.021Z,8.20
2022-12-22T22:52:49.274Z,9.55
2022-12-22T22:56:53.107Z,8.85
2022-12-22T23:00:56.605Z,9.55
2022-12-22T23:04:59.941Z,9.43
2022-12-22T23:09:05.298Z,9.65
2022-12-22T23:13:08.570Z,7.13
2022-12-22T23:17:12.234Z,7.10
2022-12-22T23:21:15.984Z,7.95
2022-12-22T23:25:23.444Z,8.18
2022-12-22T23:29:26.997Z,7.57
2022-12-22T23:33:32.357Z,7.10
2022-12-22T23:37:36.083Z,7.07
2022-12-22T23:41:40.935Z,7.15
2022-12-22T23:45:44.652Z,7.22
2022-12-22T23:49:47.929Z,6.97
2022-12-22T23:53:51.541Z,7.45
2022-12-22T23:57:56.181Z,7.82
